sensor_id;sensor_type;location;lat;lon;timestamp;P1;durP1;ratioP1;P2;durP2;ratioP2
72649;SDS011;61467;50.674;4.618;2023-07-13T00:01:03;5.68;;;1.17;;
72649;SDS011;61467;50.674;4.618;2023-07-13T00:03:32;6.00;;;1.58;;
72649;SDS011;61467;50.674;4.618;2023-07-13T00:06:00;5.90;;;1.20;;
72649;SDS011;61467;50.674;4.618;2023-07-13T00:10:57;6.28;;;1.27;;
72649;SDS011;61467;50.674;4.618;2023-07-13T00:13:24;5.05;;;1.27;;
72649;SDS011;61467;50.674;4.618;2023-07-13T00:15:51;6.82;;;1.30;;
72649;SDS011;61467;50.674;4.618;2023-07-13T00:18:19;6.05;;;1.50;;
72649;SDS011;61467;50.674;4.618;2023-07-13T00:20:47;6.23;;;1.20;;
72649;SDS011;61467;50.674;4.618;2023-07-13T00:23:15;8.02;;;1.30;;
72649;SDS011;61467;50.674;4.618;2023-07-13T00:25:44;7.72;;;1.70;;
72649;SDS011;61467;50.674;4.618;2023-07-13T00:28:11;7.82;;;1.50;;
72649;SDS011;61467;50.674;4.618;2023-07-13T00:30:38;5.38;;;1.48;;
72649;SDS011;61467;50.674;4.618;2023-07-13T00:33:05;8.37;;;1.50;;
72649;SDS011;61467;50.674;4.618;2023-07-13T00:35:32;9.07;;;1.52;;
72649;SDS011;61467;50.674;4.618;2023-07-13T00:38:01;8.50;;;1.60;;
72649;SDS011;61467;50.674;4.618;2023-07-13T00:40:28;7.25;;;1.55;;
72649;SDS011;61467;50.674;4.618;2023-07-13T00:42:56;7.82;;;2.20;;
72649;SDS011;61467;50.674;4.618;2023-07-13T00:48:29;8.88;;;1.60;;
72649;SDS011;61467;50.674;4.618;2023-07-13T00:50:59;6.13;;;1.40;;
72649;SDS011;61467;50.674;4.618;2023-07-13T00:53:29;7.75;;;1.40;;
72649;SDS011;61467;50.674;4.618;2023-07-13T00:55:58;4.88;;;1.13;;
72649;SDS011;61467;50.674;4.618;2023-07-13T00:58:26;7.97;;;1.47;;
72649;SDS011;61467;50.674;4.618;2023-07-13T01:00:53;5.10;;;1.30;;
72649;SDS011;61467;50.674;4.618;2023-07-13T01:03:20;7.82;;;2.00;;
72649;SDS011;61467;50.674;4.618;2023-07-13T01:05:48;8.70;;;1.60;;
72649;SDS011;61467;50.674;4.618;2023-07-13T01:08:16;7.95;;;1.80;;
72649;SDS011;61467;50.674;4.618;2023-07-13T01:10:51;10.70;;;1.93;;
72649;SDS011;61467;50.674;4.618;2023-07-13T01:13:19;10.27;;;1.60;;
72649;SDS011;61467;50.674;4.618;2023-07-13T01:15:49;7.18;;;1.50;;
72649;SDS011;61467;50.674;4.618;2023-07-13T01:18:18;9.55;;;1.67;;
72649;SDS011;61467;50.674;4.618;2023-07-13T01:20:52;7.00;;;1.85;;
72649;SDS011;61467;50.674;4.618;2023-07-13T01:23:20;7.30;;;1.60;;
72649;SDS011;61467;50.674;4.618;2023-07-13T01:25:48;7.65;;;1.60;;
72649;SDS011;61467;50.674;4.618;2023-07-13T01:28:15;8.80;;;1.88;;
72649;SDS011;61467;50.674;4.618;2023-07-13T01:30:43;6.50;;;1.65;;
72649;SDS011;61467;50.674;4.618;2023-07-13T01:33:12;6.25;;;1.80;;
72649;SDS011;61467;50.674;4.618;2023-07-13T01:35:41;8.27;;;1.70;;
72649;SDS011;61467;50.674;4.618;2023-07-13T01:38:10;7.35;;;1.70;;
72649;SDS011;61467;50.674;4.618;2023-07-13T01:40:38;8.05;;;1.73;;
72649;SDS011;61467;50.674;4.618;2023-07-13T01:43:05;7.13;;;1.90;;
72649;SDS011;61467;50.674;4.618;2023-07-13T01:45:32;9.68;;;1.98;;
72649;SDS011;61467;50.674;4.618;2023-07-13T01:48:00;8.40;;;1.93;;
72649;SDS011;61467;50.674;4.618;2023-07-13T01:50:27;8.48;;;1.83;;
72649;SDS011;61467;50.674;4.618;2023-07-13T01:52:54;10.57;;;1.95;;
72649;SDS011;61467;50.674;4.618;2023-07-13T01:55:23;10.50;;;1.85;;
72649;SDS011;61467;50.674;4.618;2023-07-13T01:57:49;9.02;;;1.75;;
72649;SDS011;61467;50.674;4.618;2023-07-13T02:00:15;8.10;;;1.50;;
72649;SDS011;61467;50.674;4.618;2023-07-13T02:02:43;8.23;;;1.70;;
72649;SDS011;61467;50.674;4.618;2023-07-13T02:05:10;6.60;;;1.40;;
72649;SDS011;61467;50.674;4.618;2023-07-13T02:07:38;8.38;;;1.65;;
72649;SDS011;61467;50.674;4.618;2023-07-13T02:10:05;7.33;;;1.43;;
72649;SDS011;61467;50.674;4.618;2023-07-13T02:12:34;9.95;;;1.55;;
72649;SDS011;61467;50.674;4.618;2023-07-13T02:15:01;8.75;;;1.63;;
72649;SDS011;61467;50.674;4.618;2023-07-13T02:17:29;8.95;;;1.75;;
72649;SDS011;61467;50.674;4.618;2023-07-13T02:19:57;7.97;;;2.17;;
72649;SDS011;61467;50.674;4.618;2023-07-13T02:22:24;7.60;;;1.53;;
72649;SDS011;61467;50.674;4.618;2023-07-13T02:24:51;7.03;;;1.80;;
72649;SDS011;61467;50.674;4.618;2023-07-13T02:27:20;8.18;;;1.63;;
72649;SDS011;61467;50.674;4.618;2023-07-13T02:29:48;9.70;;;1.95;;
72649;SDS011;61467;50.674;4.618;2023-07-13T02:32:16;7.35;;;1.85;;
72649;SDS011;61467;50.674;4.618;2023-07-13T02:34:43;8.73;;;1.67;;
72649;SDS011;61467;50.674;4.618;2023-07-13T02:37:10;8.98;;;1.90;;
72649;SDS011;61467;50.674;4.618;2023-07-13T02:39:37;8.07;;;1.50;;
72649;SDS011;61467;50.674;4.618;2023-07-13T02:42:06;8.95;;;2.25;;
72649;SDS011;61467;50.674;4.618;2023-07-13T02:44:34;7.90;;;1.92;;
72649;SDS011;61467;50.674;4.618;2023-07-13T02:47:02;7.47;;;1.70;;
72649;SDS011;61467;50.674;4.618;2023-07-13T02:49:29;7.90;;;1.60;;
72649;SDS011;61467;50.674;4.618;2023-07-13T02:51:57;6.38;;;1.80;;
72649;SDS011;61467;50.674;4.618;2023-07-13T02:54:23;9.57;;;1.83;;
72649;SDS011;61467;50.674;4.618;2023-07-13T02:56:50;6.43;;;1.85;;
72649;SDS011;61467;50.674;4.618;2023-07-13T02:59:17;7.40;;;1.50;;
72649;SDS011;61467;50.674;4.618;2023-07-13T03:01:44;7.88;;;1.95;;
72649;SDS011;61467;50.674;4.618;2023-07-13T03:04:12;9.65;;;1.80;;
72649;SDS011;61467;50.674;4.618;2023-07-13T03:06:39;7.28;;;1.60;;
72649;SDS011;61467;50.674;4.618;2023-07-13T03:09:06;13.13;;;1.95;;
72649;SDS011;61467;50.674;4.618;2023-07-13T03:11:33;9.80;;;1.77;;
72649;SDS011;61467;50.674;4.618;2023-07-13T03:14:00;7.32;;;1.35;;
72649;SDS011;61467;50.674;4.618;2023-07-13T03:16:27;10.32;;;2.13;;
72649;SDS011;61467;50.674;4.618;2023-07-13T03:18:53;8.70;;;1.63;;
72649;SDS011;61467;50.674;4.618;2023-07-13T03:21:22;6.53;;;1.75;;
72649;SDS011;61467;50.674;4.618;2023-07-13T03:23:48;8.77;;;1.50;;
72649;SDS011;61467;50.674;4.618;2023-07-13T03:26:16;6.95;;;1.67;;
72649;SDS011;61467;50.674;4.618;2023-07-13T03:28:44;8.52;;;1.60;;
72649;SDS011;61467;50.674;4.618;2023-07-13T03:31:12;7.78;;;1.70;;
72649;SDS011;61467;50.674;4.618;2023-07-13T03:33:40;8.07;;;2.13;;
72649;SDS011;61467;50.674;4.618;2023-07-13T03:36:11;9.37;;;1.80;;
72649;SDS011;61467;50.674;4.618;2023-07-13T03:38:42;10.80;;;1.67;;
72649;SDS011;61467;50.674;4.618;2023-07-13T03:41:09;9.75;;;2.25;;
72649;SDS011;61467;50.674;4.618;2023-07-13T03:43:36;7.10;;;1.65;;
72649;SDS011;61467;50.674;4.618;2023-07-13T03:46:03;10.15;;;1.70;;
72649;SDS011;61467;50.674;4.618;2023-07-13T03:48:30;9.07;;;1.83;;
72649;SDS011;61467;50.674;4.618;2023-07-13T03:50:56;7.45;;;2.00;;
72649;SDS011;61467;50.674;4.618;2023-07-13T03:53:23;10.93;;;2.00;;
72649;SDS011;61467;50.674;4.618;2023-07-13T03:55:51;7.75;;;1.50;;
72649;SDS011;61467;50.674;4.618;2023-07-13T03:58:31;9.48;;;2.30;;
72649;SDS011;61467;50.674;4.618;2023-07-13T04:00:59;6.80;;;1.43;;
72649;SDS011;61467;50.674;4.618;2023-07-13T04:03:27;9.02;;;1.75;;
72649;SDS011;61467;50.674;4.618;2023-07-13T04:05:55;11.18;;;1.90;;
72649;SDS011;61467;50.674;4.618;2023-07-13T04:08:24;6.20;;;1.65;;
72649;SDS011;61467;50.674;4.618;2023-07-13T04:10:53;8.80;;;1.63;;
72649;SDS011;61467;50.674;4.618;2023-07-13T04:13:20;10.27;;;1.53;;
72649;SDS011;61467;50.674;4.618;2023-07-13T04:15:47;9.35;;;1.65;;
72649;SDS011;61467;50.674;4.618;2023-07-13T04:18:14;7.88;;;1.80;;
72649;SDS011;61467;50.674;4.618;2023-07-13T04:20:41;7.57;;;1.88;;
72649;SDS011;61467;50.674;4.618;2023-07-13T04:23:08;9.70;;;1.75;;
72649;SDS011;61467;50.674;4.618;2023-07-13T04:25:34;9.67;;;2.23;;
72649;SDS011;61467;50.674;4.618;2023-07-13T04:28:03;8.23;;;1.67;;
72649;SDS011;61467;50.674;4.618;2023-07-13T04:30:30;7.65;;;1.77;;
72649;SDS011;61467;50.674;4.618;2023-07-13T04:32:57;8.25;;;2.22;;
72649;SDS011;61467;50.674;4.618;2023-07-13T04:35:24;8.60;;;1.58;;
72649;SDS011;61467;50.674;4.618;2023-07-13T04:37:51;6.13;;;1.33;;
72649;SDS011;61467;50.674;4.618;2023-07-13T04:40:18;9.23;;;1.85;;
72649;SDS011;61467;50.674;4.618;2023-07-13T04:42:45;9.95;;;1.63;;
72649;SDS011;61467;50.674;4.618;2023-07-13T04:45:13;9.60;;;2.03;;
72649;SDS011;61467;50.674;4.618;2023-07-13T04:47:40;11.77;;;2.00;;
72649;SDS011;61467;50.674;4.618;2023-07-13T04:50:08;9.00;;;2.00;;
72649;SDS011;61467;50.674;4.618;2023-07-13T04:52:36;9.88;;;1.73;;
72649;SDS011;61467;50.674;4.618;2023-07-13T04:55:04;8.95;;;1.60;;
72649;SDS011;61467;50.674;4.618;2023-07-13T04:57:31;8.77;;;2.05;;
72649;SDS011;61467;50.674;4.618;2023-07-13T04:59:59;10.55;;;2.17;;
72649;SDS011;61467;50.674;4.618;2023-07-13T05:02:27;8.63;;;2.03;;
72649;SDS011;61467;50.674;4.618;2023-07-13T05:04:56;11.48;;;1.90;;
72649;SDS011;61467;50.674;4.618;2023-07-13T05:07:23;11.23;;;2.20;;
72649;SDS011;61467;50.674;4.618;2023-07-13T05:09:50;8.77;;;1.60;;
72649;SDS011;61467;50.674;4.618;2023-07-13T05:12:16;9.68;;;1.63;;
72649;SDS011;61467;50.674;4.618;2023-07-13T05:14:43;10.53;;;1.97;;
72649;SDS011;61467;50.674;4.618;2023-07-13T05:17:11;10.85;;;2.00;;
72649;SDS011;61467;50.674;4.618;2023-07-13T05:19:39;9.98;;;1.95;;
72649;SDS011;61467;50.674;4.618;2023-07-13T05:22:05;10.38;;;2.22;;
72649;SDS011;61467;50.674;4.618;2023-07-13T05:24:33;10.57;;;1.98;;
72649;SDS011;61467;50.674;4.618;2023-07-13T05:27:00;10.90;;;2.00;;
72649;SDS011;61467;50.674;4.618;2023-07-13T05:29:26;10.70;;;1.80;;
72649;SDS011;61467;50.674;4.618;2023-07-13T05:31:53;11.35;;;2.30;;
72649;SDS011;61467;50.674;4.618;2023-07-13T05:34:21;8.88;;;1.65;;
72649;SDS011;61467;50.674;4.618;2023-07-13T05:36:49;10.80;;;1.73;;
72649;SDS011;61467;50.674;4.618;2023-07-13T05:39:17;7.80;;;2.10;;
72649;SDS011;61467;50.674;4.618;2023-07-13T05:41:44;8.98;;;2.00;;
72649;SDS011;61467;50.674;4.618;2023-07-13T05:44:11;8.63;;;1.88;;
72649;SDS011;61467;50.674;4.618;2023-07-13T05:46:37;9.10;;;1.75;;
72649;SDS011;61467;50.674;4.618;2023-07-13T05:49:04;10.82;;;2.40;;
72649;SDS011;61467;50.674;4.618;2023-07-13T05:51:31;7.83;;;1.87;;
72649;SDS011;61467;50.674;4.618;2023-07-13T05:53:59;7.50;;;1.92;;
72649;SDS011;61467;50.674;4.618;2023-07-13T05:56:26;10.77;;;2.13;;
72649;SDS011;61467;50.674;4.618;2023-07-13T05:58:53;8.73;;;2.03;;
72649;SDS011;61467;50.674;4.618;2023-07-13T06:01:20;11.20;;;2.22;;
72649;SDS011;61467;50.674;4.618;2023-07-13T06:03:47;7.63;;;2.30;;
72649;SDS011;61467;50.674;4.618;2023-07-13T06:06:14;9.55;;;2.40;;
72649;SDS011;61467;50.674;4.618;2023-07-13T06:08:42;10.95;;;3.28;;
72649;SDS011;61467;50.674;4.618;2023-07-13T06:11:12;9.95;;;2.35;;
72649;SDS011;61467;50.674;4.618;2023-07-13T06:13:41;15.30;;;2.85;;
72649;SDS011;61467;50.674;4.618;2023-07-13T06:16:08;15.47;;;2.73;;
72649;SDS011;61467;50.674;4.618;2023-07-13T06:18:36;13.00;;;2.20;;
72649;SDS011;61467;50.674;4.618;2023-07-13T06:21:05;12.68;;;2.30;;
72649;SDS011;61467;50.674;4.618;2023-07-13T06:23:33;11.80;;;2.05;;
72649;SDS011;61467;50.674;4.618;2023-07-13T06:26:00;10.70;;;2.00;;
72649;SDS011;61467;50.674;4.618;2023-07-13T06:28:29;8.03;;;1.87;;
72649;SDS011;61467;50.674;4.618;2023-07-13T06:30:57;10.57;;;2.30;;
72649;SDS011;61467;50.674;4.618;2023-07-13T06:33:24;10.70;;;2.40;;
72649;SDS011;61467;50.674;4.618;2023-07-13T06:35:51;10.75;;;2.17;;
72649;SDS011;61467;50.674;4.618;2023-07-13T06:38:18;8.27;;;2.20;;
72649;SDS011;61467;50.674;4.618;2023-07-13T06:40:45;7.60;;;2.03;;
72649;SDS011;61467;50.674;4.618;2023-07-13T06:43:11;11.77;;;2.35;;
72649;SDS011;61467;50.674;4.618;2023-07-13T06:45:41;9.55;;;2.22;;
72649;SDS011;61467;50.674;4.618;2023-07-13T06:48:10;10.45;;;2.58;;
72649;SDS011;61467;50.674;4.618;2023-07-13T06:50:37;10.48;;;2.38;;
72649;SDS011;61467;50.674;4.618;2023-07-13T06:53:04;10.30;;;2.10;;
72649;SDS011;61467;50.674;4.618;2023-07-13T06:55:31;11.80;;;3.00;;
72649;SDS011;61467;50.674;4.618;2023-07-13T06:57:58;9.60;;;2.40;;
72649;SDS011;61467;50.674;4.618;2023-07-13T07:00:24;10.55;;;2.40;;
72649;SDS011;61467;50.674;4.618;2023-07-13T07:02:53;10.45;;;2.55;;
72649;SDS011;61467;50.674;4.618;2023-07-13T07:05:19;13.37;;;2.30;;
72649;SDS011;61467;50.674;4.618;2023-07-13T07:07:47;12.75;;;2.38;;
72649;SDS011;61467;50.674;4.618;2023-07-13T07:10:13;8.25;;;2.22;;
72649;SDS011;61467;50.674;4.618;2023-07-13T07:12:40;11.70;;;1.83;;
72649;SDS011;61467;50.674;4.618;2023-07-13T07:15:07;9.75;;;2.40;;
72649;SDS011;61467;50.674;4.618;2023-07-13T07:17:35;9.83;;;2.10;;
72649;SDS011;61467;50.674;4.618;2023-07-13T07:20:03;7.57;;;2.38;;
72649;SDS011;61467;50.674;4.618;2023-07-13T07:22:31;8.65;;;2.20;;
72649;SDS011;61467;50.674;4.618;2023-07-13T07:24:58;10.55;;;1.83;;
72649;SDS011;61467;50.674;4.618;2023-07-13T07:27:25;7.53;;;2.20;;
72649;SDS011;61467;50.674;4.618;2023-07-13T07:29:52;7.60;;;1.97;;
72649;SDS011;61467;50.674;4.618;2023-07-13T07:32:19;7.03;;;1.90;;
72649;SDS011;61467;50.674;4.618;2023-07-13T07:34:46;11.88;;;1.95;;
72649;SDS011;61467;50.674;4.618;2023-07-13T07:37:15;9.52;;;2.50;;
72649;SDS011;61467;50.674;4.618;2023-07-13T07:39:42;11.00;;;2.15;;
72649;SDS011;61467;50.674;4.618;2023-07-13T07:42:09;11.13;;;2.00;;
72649;SDS011;61467;50.674;4.618;2023-07-13T07:44:37;10.13;;;2.35;;
72649;SDS011;61467;50.674;4.618;2023-07-13T07:47:07;13.80;;;2.17;;
72649;SDS011;61467;50.674;4.618;2023-07-13T07:49:34;11.55;;;2.13;;
72649;SDS011;61467;50.674;4.618;2023-07-13T07:52:01;8.32;;;2.00;;
72649;SDS011;61467;50.674;4.618;2023-07-13T07:54:30;8.40;;;2.10;;
72649;SDS011;61467;50.674;4.618;2023-07-13T07:56:56;11.15;;;2.35;;
72649;SDS011;61467;50.674;4.618;2023-07-13T07:59:23;9.73;;;2.05;;
72649;SDS011;61467;50.674;4.618;2023-07-13T08:01:50;8.18;;;1.80;;
72649;SDS011;61467;50.674;4.618;2023-07-13T08:04:17;11.93;;;2.63;;
72649;SDS011;61467;50.674;4.618;2023-07-13T08:06:44;8.97;;;2.17;;
72649;SDS011;61467;50.674;4.618;2023-07-13T08:09:12;15.45;;;2.42;;
72649;SDS011;61467;50.674;4.618;2023-07-13T08:11:42;12.18;;;2.20;;
72649;SDS011;61467;50.674;4.618;2023-07-13T08:14:09;10.48;;;2.58;;
72649;SDS011;61467;50.674;4.618;2023-07-13T08:16:36;11.70;;;2.20;;
72649;SDS011;61467;50.674;4.618;2023-07-13T08:19:03;9.00;;;1.77;;
72649;SDS011;61467;50.674;4.618;2023-07-13T08:21:31;9.70;;;2.58;;
72649;SDS011;61467;50.674;4.618;2023-07-13T08:23:58;8.25;;;2.03;;
72649;SDS011;61467;50.674;4.618;2023-07-13T08:26:24;8.43;;;1.60;;
72649;SDS011;61467;50.674;4.618;2023-07-13T08:28:53;8.25;;;1.98;;
72649;SDS011;61467;50.674;4.618;2023-07-13T08:31:19;10.90;;;1.97;;
72649;SDS011;61467;50.674;4.618;2023-07-13T08:33:46;11.18;;;1.77;;
72649;SDS011;61467;50.674;4.618;2023-07-13T08:36:13;9.10;;;1.83;;
72649;SDS011;61467;50.674;4.618;2023-07-13T08:38:40;9.77;;;2.03;;
72649;SDS011;61467;50.674;4.618;2023-07-13T08:41:11;12.63;;;2.30;;
72649;SDS011;61467;50.674;4.618;2023-07-13T08:43:39;11.73;;;1.80;;
72649;SDS011;61467;50.674;4.618;2023-07-13T08:46:10;9.13;;;2.03;;
72649;SDS011;61467;50.674;4.618;2023-07-13T08:48:41;9.35;;;1.95;;
72649;SDS011;61467;50.674;4.618;2023-07-13T08:51:12;10.82;;;1.90;;
72649;SDS011;61467;50.674;4.618;2023-07-13T08:53:50;9.55;;;1.65;;
72649;SDS011;61467;50.674;4.618;2023-07-13T08:56:22;10.83;;;2.43;;
72649;SDS011;61467;50.674;4.618;2023-07-13T08:59:00;11.35;;;2.03;;
72649;SDS011;61467;50.674;4.618;2023-07-13T09:01:37;10.00;;;2.20;;
72649;SDS011;61467;50.674;4.618;2023-07-13T09:04:18;8.13;;;2.20;;
72649;SDS011;61467;50.674;4.618;2023-07-13T09:06:49;8.38;;;1.98;;
72649;SDS011;61467;50.674;4.618;2023-07-13T09:09:32;10.53;;;2.63;;
72649;SDS011;61467;50.674;4.618;2023-07-13T09:12:09;7.40;;;1.98;;
72649;SDS011;61467;50.674;4.618;2023-07-13T09:14:42;9.35;;;1.90;;
72649;SDS011;61467;50.674;4.618;2023-07-13T09:17:14;7.60;;;1.90;;
72649;SDS011;61467;50.674;4.618;2023-07-13T09:19:46;10.48;;;1.77;;
72649;SDS011;61467;50.674;4.618;2023-07-13T09:22:18;7.63;;;1.43;;
72649;SDS011;61467;50.674;4.618;2023-07-13T09:24:51;9.25;;;2.10;;
72649;SDS011;61467;50.674;4.618;2023-07-13T09:27:22;12.13;;;2.30;;
72649;SDS011;61467;50.674;4.618;2023-07-13T09:29:51;9.85;;;2.20;;
72649;SDS011;61467;50.674;4.618;2023-07-13T09:32:25;7.43;;;1.95;;
72649;SDS011;61467;50.674;4.618;2023-07-13T09:34:52;7.87;;;1.70;;
72649;SDS011;61467;50.674;4.618;2023-07-13T09:37:20;6.90;;;1.63;;
72649;SDS011;61467;50.674;4.618;2023-07-13T09:39:50;9.60;;;2.00;;
72649;SDS011;61467;50.674;4.618;2023-07-13T09:42:20;8.18;;;1.73;;
72649;SDS011;61467;50.674;4.618;2023-07-13T09:44:52;12.52;;;2.25;;
72649;SDS011;61467;50.674;4.618;2023-07-13T09:47:21;8.13;;;2.60;;
72649;SDS011;61467;50.674;4.618;2023-07-13T09:49:57;9.07;;;1.65;;
72649;SDS011;61467;50.674;4.618;2023-07-13T09:52:24;6.63;;;1.60;;
72649;SDS011;61467;50.674;4.618;2023-07-13T09:54:53;9.77;;;1.60;;
72649;SDS011;61467;50.674;4.618;2023-07-13T09:57:24;6.07;;;1.40;;
72649;SDS011;61467;50.674;4.618;2023-07-13T09:59:53;8.83;;;1.90;;
72649;SDS011;61467;50.674;4.618;2023-07-13T10:02:25;8.65;;;1.95;;
72649;SDS011;61467;50.674;4.618;2023-07-13T10:04:58;8.77;;;1.98;;
72649;SDS011;61467;50.674;4.618;2023-07-13T10:07:26;6.55;;;1.67;;
72649;SDS011;61467;50.674;4.618;2023-07-13T10:09:54;9.60;;;2.00;;
72649;SDS011;61467;50.674;4.618;2023-07-13T10:12:21;5.23;;;1.53;;
72649;SDS011;61467;50.674;4.618;2023-07-13T10:14:50;7.50;;;1.60;;
72649;SDS011;61467;50.674;4.618;2023-07-13T10:17:20;8.70;;;1.80;;
72649;SDS011;61467;50.674;4.618;2023-07-13T10:19:58;9.02;;;1.75;;
72649;SDS011;61467;50.674;4.618;2023-07-13T10:22:31;8.98;;;2.00;;
72649;SDS011;61467;50.674;4.618;2023-07-13T10:25:07;8.17;;;2.00;;
72649;SDS011;61467;50.674;4.618;2023-07-13T10:27:43;6.15;;;1.77;;
72649;SDS011;61467;50.674;4.618;2023-07-13T10:30:12;9.23;;;2.00;;
72649;SDS011;61467;50.674;4.618;2023-07-13T10:32:43;7.28;;;1.75;;
72649;SDS011;61467;50.674;4.618;2023-07-13T10:35:15;8.10;;;1.70;;
72649;SDS011;61467;50.674;4.618;2023-07-13T10:37:45;8.40;;;2.37;;
72649;SDS011;61467;50.674;4.618;2023-07-13T10:40:18;7.85;;;1.70;;
72649;SDS011;61467;50.674;4.618;2023-07-13T10:42:49;8.40;;;2.00;;
72649;SDS011;61467;50.674;4.618;2023-07-13T10:45:20;7.10;;;1.70;;
72649;SDS011;61467;50.674;4.618;2023-07-13T10:47:49;7.55;;;1.70;;
72649;SDS011;61467;50.674;4.618;2023-07-13T10:50:22;9.73;;;1.93;;
72649;SDS011;61467;50.674;4.618;2023-07-13T10:52:52;7.05;;;1.70;;
72649;SDS011;61467;50.674;4.618;2023-07-13T10:55:34;9.25;;;2.17;;
72649;SDS011;61467;50.674;4.618;2023-07-13T10:58:03;8.10;;;1.60;;
72649;SDS011;61467;50.674;4.618;2023-07-13T11:00:47;5.63;;;1.60;;
72649;SDS011;61467;50.674;4.618;2023-07-13T11:03:17;8.13;;;2.07;;
72649;SDS011;61467;50.674;4.618;2023-07-13T11:05:51;8.43;;;1.52;;
72649;SDS011;61467;50.674;4.618;2023-07-13T11:08:35;6.68;;;1.50;;
72649;SDS011;61467;50.674;4.618;2023-07-13T11:11:04;6.38;;;1.60;;
72649;SDS011;61467;50.674;4.618;2023-07-13T11:14:04;7.13;;;1.50;;
72649;SDS011;61467;50.674;4.618;2023-07-13T11:16:52;6.20;;;1.53;;
72649;SDS011;61467;50.674;4.618;2023-07-13T11:19:26;10.10;;;1.45;;
72649;SDS011;61467;50.674;4.618;2023-07-13T11:22:23;5.72;;;1.45;;
72649;SDS011;61467;50.674;4.618;2023-07-13T11:24:59;5.20;;;1.50;;
72649;SDS011;61467;50.674;4.618;2023-07-13T11:30:31;5.63;;;1.40;;
72649;SDS011;61467;50.674;4.618;2023-07-13T11:33:03;6.65;;;1.40;;
72649;SDS011;61467;50.674;4.618;2023-07-13T11:35:38;5.30;;;1.30;;
72649;SDS011;61467;50.674;4.618;2023-07-13T11:38:13;6.78;;;1.20;;
72649;SDS011;61467;50.674;4.618;2023-07-13T11:40:44;5.93;;;1.30;;
72649;SDS011;61467;50.674;4.618;2023-07-13T11:43:12;7.53;;;1.50;;
72649;SDS011;61467;50.674;4.618;2023-07-13T11:45:41;6.30;;;1.15;;
72649;SDS011;61467;50.674;4.618;2023-07-13T11:48:21;6.22;;;1.42;;
72649;SDS011;61467;50.674;4.618;2023-07-13T11:50:57;5.07;;;1.20;;
72649;SDS011;61467;50.674;4.618;2023-07-13T11:53:28;7.68;;;1.58;;
72649;SDS011;61467;50.674;4.618;2023-07-13T11:55:59;7.53;;;2.10;;
72649;SDS011;61467;50.674;4.618;2023-07-13T11:58:27;5.05;;;1.00;;
72649;SDS011;61467;50.674;4.618;2023-07-13T12:00:55;7.07;;;1.30;;
72649;SDS011;61467;50.674;4.618;2023-07-13T12:03:29;5.78;;;0.93;;
72649;SDS011;61467;50.674;4.618;2023-07-13T12:05:59;4.65;;;1.00;;
72649;SDS011;61467;50.674;4.618;2023-07-13T12:08:29;5.23;;;1.30;;
72649;SDS011;61467;50.674;4.618;2023-07-13T12:11:03;4.20;;;1.08;;
72649;SDS011;61467;50.674;4.618;2023-07-13T12:13:35;6.72;;;1.35;;
72649;SDS011;61467;50.674;4.618;2023-07-13T12:16:10;7.45;;;1.52;;
72649;SDS011;61467;50.674;4.618;2023-07-13T12:18:42;6.78;;;1.15;;
72649;SDS011;61467;50.674;4.618;2023-07-13T12:21:12;4.93;;;1.20;;
72649;SDS011;61467;50.674;4.618;2023-07-13T12:23:44;5.47;;;1.30;;
72649;SDS011;61467;50.674;4.618;2023-07-13T12:26:14;5.78;;;1.30;;
72649;SDS011;61467;50.674;4.618;2023-07-13T12:28:44;5.35;;;0.93;;
72649;SDS011;61467;50.674;4.618;2023-07-13T12:31:22;6.55;;;1.00;;
72649;SDS011;61467;50.674;4.618;2023-07-13T12:33:56;4.67;;;1.23;;
72649;SDS011;61467;50.674;4.618;2023-07-13T12:36:24;4.18;;;1.02;;
72649;SDS011;61467;50.674;4.618;2023-07-13T12:38:53;5.30;;;1.08;;
72649;SDS011;61467;50.674;4.618;2023-07-13T12:41:20;4.65;;;0.80;;
72649;SDS011;61467;50.674;4.618;2023-07-13T12:43:48;7.05;;;1.10;;
72649;SDS011;61467;50.674;4.618;2023-07-13T12:46:16;4.97;;;1.00;;
72649;SDS011;61467;50.674;4.618;2023-07-13T12:48:48;5.28;;;1.45;;
72649;SDS011;61467;50.674;4.618;2023-07-13T12:51:16;4.95;;;1.20;;
72649;SDS011;61467;50.674;4.618;2023-07-13T12:53:47;4.28;;;1.10;;
72649;SDS011;61467;50.674;4.618;2023-07-13T12:56:19;3.72;;;0.98;;
72649;SDS011;61467;50.674;4.618;2023-07-13T12:58:49;4.97;;;1.20;;
72649;SDS011;61467;50.674;4.618;2023-07-13T13:01:20;4.70;;;1.00;;
72649;SDS011;61467;50.674;4.618;2023-07-13T13:03:50;3.88;;;0.95;;
72649;SDS011;61467;50.674;4.618;2023-07-13T13:06:22;4.93;;;1.08;;
72649;SDS011;61467;50.674;4.618;2023-07-13T13:08:51;4.50;;;1.23;;
72649;SDS011;61467;50.674;4.618;2023-07-13T13:11:23;6.60;;;1.00;;
72649;SDS011;61467;50.674;4.618;2023-07-13T13:13:51;5.07;;;1.30;;
72649;SDS011;61467;50.674;4.618;2023-07-13T13:16:20;5.18;;;1.02;;
72649;SDS011;61467;50.674;4.618;2023-07-13T13:18:51;4.70;;;1.00;;
72649;SDS011;61467;50.674;4.618;2023-07-13T13:21:20;4.65;;;0.85;;
72649;SDS011;61467;50.674;4.618;2023-07-13T13:23:47;5.50;;;1.03;;
72649;SDS011;61467;50.674;4.618;2023-07-13T13:26:14;4.45;;;0.90;;
72649;SDS011;61467;50.674;4.618;2023-07-13T13:28:43;5.80;;;1.30;;
72649;SDS011;61467;50.674;4.618;2023-07-13T13:31:12;4.32;;;1.00;;
72649;SDS011;61467;50.674;4.618;2023-07-13T13:33:40;5.47;;;1.10;;
72649;SDS011;61467;50.674;4.618;2023-07-13T13:36:17;4.93;;;1.03;;
72649;SDS011;61467;50.674;4.618;2023-07-13T13:38:45;3.78;;;0.93;;
72649;SDS011;61467;50.674;4.618;2023-07-13T13:41:13;5.22;;;1.30;;
72649;SDS011;61467;50.674;4.618;2023-07-13T13:43:41;5.32;;;1.20;;
72649;SDS011;61467;50.674;4.618;2023-07-13T13:46:13;4.30;;;1.23;;
72649;SDS011;61467;50.674;4.618;2023-07-13T13:48:41;7.67;;;1.20;;
72649;SDS011;61467;50.674;4.618;2023-07-13T13:51:12;5.10;;;1.00;;
72649;SDS011;61467;50.674;4.618;2023-07-13T13:53:41;6.53;;;1.20;;
72649;SDS011;61467;50.674;4.618;2023-07-13T13:56:08;5.82;;;1.13;;
72649;SDS011;61467;50.674;4.618;2023-07-13T13:58:35;7.15;;;1.30;;
72649;SDS011;61467;50.674;4.618;2023-07-13T14:01:04;6.83;;;1.47;;
72649;SDS011;61467;50.674;4.618;2023-07-13T14:03:33;4.93;;;1.30;;
72649;SDS011;61467;50.674;4.618;2023-07-13T14:06:00;6.07;;;1.30;;
72649;SDS011;61467;50.674;4.618;2023-07-13T14:08:27;4.78;;;1.05;;
72649;SDS011;61467;50.674;4.618;2023-07-13T14:10:55;5.45;;;1.13;;
72649;SDS011;61467;50.674;4.618;2023-07-13T14:13:24;4.47;;;1.00;;
72649;SDS011;61467;50.674;4.618;2023-07-13T14:15:54;4.50;;;1.10;;
72649;SDS011;61467;50.674;4.618;2023-07-13T14:18:22;4.88;;;1.33;;
72649;SDS011;61467;50.674;4.618;2023-07-13T14:20:49;4.88;;;1.10;;
72649;SDS011;61467;50.674;4.618;2023-07-13T14:23:17;4.65;;;0.80;;
72649;SDS011;61467;50.674;4.618;2023-07-13T14:25:44;6.07;;;1.00;;
72649;SDS011;61467;50.674;4.618;2023-07-13T14:28:19;5.43;;;1.00;;
72649;SDS011;61467;50.674;4.618;2023-07-13T14:30:49;4.43;;;0.93;;
72649;SDS011;61467;50.674;4.618;2023-07-13T14:33:16;5.15;;;1.10;;
72649;SDS011;61467;50.674;4.618;2023-07-13T14:35:44;5.70;;;1.27;;
72649;SDS011;61467;50.674;4.618;2023-07-13T14:38:11;5.40;;;1.10;;
72649;SDS011;61467;50.674;4.618;2023-07-13T14:40:45;4.40;;;1.13;;
72649;SDS011;61467;50.674;4.618;2023-07-13T14:43:12;5.30;;;1.10;;
72649;SDS011;61467;50.674;4.618;2023-07-13T14:45:41;4.55;;;1.30;;
72649;SDS011;61467;50.674;4.618;2023-07-13T14:48:13;4.30;;;1.30;;
72649;SDS011;61467;50.674;4.618;2023-07-13T14:50:42;8.57;;;1.33;;
72649;SDS011;61467;50.674;4.618;2023-07-13T14:53:11;6.15;;;1.55;;
72649;SDS011;61467;50.674;4.618;2023-07-13T14:55:38;7.18;;;1.60;;
72649;SDS011;61467;50.674;4.618;2023-07-13T14:58:05;4.97;;;1.35;;
72649;SDS011;61467;50.674;4.618;2023-07-13T15:00:32;4.25;;;1.15;;
72649;SDS011;61467;50.674;4.618;2023-07-13T15:02:59;4.63;;;1.30;;
72649;SDS011;61467;50.674;4.618;2023-07-13T15:05:27;6.68;;;1.50;;